Terminal Aerodrome Forecast
Issued by NWS King Salmon, AK

Home | Current Version | Previous Version | Text Only | Print | Product List | Glossary On
Versions: 1 2 3 4 5 6 7 8 9 10 11 12 13 14 15 16 17 18 19 20 21 22 23 24 25 26 27 28 29 30 31 32 33 34 35 36 37 38 39 40 41
000
FTAK31 PANC 240543
TAFAKN
TAF
PAKN 240543Z 2406/2506 22010KT 6SM -RA BR BKN015 OVC020
     FM241600 20010KT 6SM -RA BR SCT005 OVC015
     FM241900 20010G15KT P6SM VCSH FEW020 BKN035=

USA.gov is the U.S. government's official web portal to all federal, state and local government web resources and services.